Terminal Aerodrome Forecast
Issued by NWS

Home | Current Version | Previous Version | Text Only | Print | Product List | Glossary On
Versions: 1 2 3 4 5 6 7 8 9 10 11 12 13 14 15 16
000
FTAK31 PANC 311741
TAFADU
TAF
PADU 311741Z 3118/0118 24030G42KT 6SM -SHRA OVC035
     FM011000 27020G30KT 6SM -RA SCT020 OVC300=

USA.gov is the U.S. government's official web portal to all federal, state and local government web resources and services.